sensor_id;sensor_type;location;lat;lon;timestamp;P1;durP1;ratioP1;P2;durP2;ratioP2
4577;SDS011;2301;47.354;8.528;2023-05-10T00:01:43;4.07;;;0.90;;
4577;SDS011;2301;47.354;8.528;2023-05-10T00:04:09;1.30;;;0.70;;
4577;SDS011;2301;47.354;8.528;2023-05-10T00:06:36;1.63;;;0.90;;
4577;SDS011;2301;47.354;8.528;2023-05-10T00:09:03;1.40;;;0.80;;
4577;SDS011;2301;47.354;8.528;2023-05-10T00:11:31;2.93;;;0.90;;
4577;SDS011;2301;47.354;8.528;2023-05-10T00:13:58;1.30;;;0.80;;
4577;SDS011;2301;47.354;8.528;2023-05-10T00:16:25;1.40;;;0.90;;
4577;SDS011;2301;47.354;8.528;2023-05-10T00:18:52;2.27;;;0.90;;
4577;SDS011;2301;47.354;8.528;2023-05-10T00:21:19;2.60;;;1.30;;
4577;SDS011;2301;47.354;8.528;2023-05-10T00:23:46;1.30;;;0.80;;
4577;SDS011;2301;47.354;8.528;2023-05-10T00:26:13;1.50;;;0.90;;
4577;SDS011;2301;47.354;8.528;2023-05-10T00:28:41;1.70;;;0.90;;
4577;SDS011;2301;47.354;8.528;2023-05-10T00:31:08;1.30;;;0.80;;
4577;SDS011;2301;47.354;8.528;2023-05-10T00:33:35;2.40;;;0.87;;
4577;SDS011;2301;47.354;8.528;2023-05-10T00:36:01;1.83;;;0.80;;
4577;SDS011;2301;47.354;8.528;2023-05-10T00:38:29;2.57;;;1.10;;
4577;SDS011;2301;47.354;8.528;2023-05-10T00:40:56;1.83;;;0.80;;
4577;SDS011;2301;47.354;8.528;2023-05-10T00:43:22;1.37;;;0.90;;
4577;SDS011;2301;47.354;8.528;2023-05-10T00:45:51;1.60;;;0.90;;
4577;SDS011;2301;47.354;8.528;2023-05-10T00:48:18;1.40;;;0.90;;
4577;SDS011;2301;47.354;8.528;2023-05-10T00:50:45;1.50;;;0.97;;
4577;SDS011;2301;47.354;8.528;2023-05-10T00:53:12;1.33;;;0.80;;
4577;SDS011;2301;47.354;8.528;2023-05-10T00:55:41;1.40;;;0.80;;
4577;SDS011;2301;47.354;8.528;2023-05-10T00:58:08;1.93;;;0.80;;
4577;SDS011;2301;47.354;8.528;2023-05-10T01:00:35;2.27;;;0.90;;
4577;SDS011;2301;47.354;8.528;2023-05-10T01:03:04;1.30;;;0.87;;
4577;SDS011;2301;47.354;8.528;2023-05-10T01:05:30;4.37;;;0.90;;
4577;SDS011;2301;47.354;8.528;2023-05-10T01:07:57;2.33;;;1.10;;
4577;SDS011;2301;47.354;8.528;2023-05-10T01:10:24;1.33;;;0.87;;
4577;SDS011;2301;47.354;8.528;2023-05-10T01:12:51;1.97;;;0.90;;
4577;SDS011;2301;47.354;8.528;2023-05-10T01:15:18;3.40;;;1.00;;
4577;SDS011;2301;47.354;8.528;2023-05-10T01:17:47;1.40;;;0.80;;
4577;SDS011;2301;47.354;8.528;2023-05-10T01:20:16;2.80;;;0.80;;
4577;SDS011;2301;47.354;8.528;2023-05-10T01:22:52;2.60;;;1.10;;
4577;SDS011;2301;47.354;8.528;2023-05-10T01:28:49;1.70;;;0.97;;
4577;SDS011;2301;47.354;8.528;2023-05-10T01:31:48;1.80;;;0.90;;
4577;SDS011;2301;47.354;8.528;2023-05-10T01:34:32;1.67;;;0.90;;
4577;SDS011;2301;47.354;8.528;2023-05-10T01:37:02;1.50;;;0.90;;
4577;SDS011;2301;47.354;8.528;2023-05-10T01:39:36;1.80;;;0.87;;
4577;SDS011;2301;47.354;8.528;2023-05-10T01:42:09;1.70;;;1.10;;
4577;SDS011;2301;47.354;8.528;2023-05-10T01:44:42;1.40;;;0.83;;
4577;SDS011;2301;47.354;8.528;2023-05-10T01:47:17;1.60;;;0.90;;
4577;SDS011;2301;47.354;8.528;2023-05-10T01:49:53;2.17;;;1.00;;
4577;SDS011;2301;47.354;8.528;2023-05-10T01:52:22;1.60;;;0.90;;
4577;SDS011;2301;47.354;8.528;2023-05-10T01:54:55;1.30;;;0.80;;
4577;SDS011;2301;47.354;8.528;2023-05-10T01:57:32;1.50;;;0.80;;
4577;SDS011;2301;47.354;8.528;2023-05-10T02:00:01;5.17;;;0.80;;
4577;SDS011;2301;47.354;8.528;2023-05-10T02:02:30;1.97;;;0.90;;
4577;SDS011;2301;47.354;8.528;2023-05-10T02:05:02;1.40;;;0.90;;
4577;SDS011;2301;47.354;8.528;2023-05-10T02:07:31;4.13;;;1.10;;
4577;SDS011;2301;47.354;8.528;2023-05-10T02:10:00;1.70;;;0.90;;
4577;SDS011;2301;47.354;8.528;2023-05-10T02:12:28;1.60;;;0.80;;
4577;SDS011;2301;47.354;8.528;2023-05-10T02:14:58;1.43;;;0.80;;
4577;SDS011;2301;47.354;8.528;2023-05-10T02:17:28;2.80;;;0.80;;
4577;SDS011;2301;47.354;8.528;2023-05-10T02:19:58;1.70;;;0.97;;
4577;SDS011;2301;47.354;8.528;2023-05-10T02:22:26;1.57;;;0.83;;
4577;SDS011;2301;47.354;8.528;2023-05-10T02:24:53;2.00;;;0.80;;
4577;SDS011;2301;47.354;8.528;2023-05-10T02:27:21;3.00;;;0.70;;
4577;SDS011;2301;47.354;8.528;2023-05-10T02:29:50;2.13;;;0.90;;
4577;SDS011;2301;47.354;8.528;2023-05-10T02:32:17;3.20;;;0.80;;
4577;SDS011;2301;47.354;8.528;2023-05-10T02:34:46;3.40;;;1.00;;
4577;SDS011;2301;47.354;8.528;2023-05-10T02:37:16;2.00;;;1.03;;
4577;SDS011;2301;47.354;8.528;2023-05-10T02:39:45;3.03;;;0.80;;
4577;SDS011;2301;47.354;8.528;2023-05-10T02:42:13;1.50;;;0.90;;
4577;SDS011;2301;47.354;8.528;2023-05-10T02:44:44;2.00;;;0.90;;
4577;SDS011;2301;47.354;8.528;2023-05-10T02:47:13;1.87;;;1.10;;
4577;SDS011;2301;47.354;8.528;2023-05-10T02:49:41;2.87;;;1.20;;
4577;SDS011;2301;47.354;8.528;2023-05-10T02:52:10;1.60;;;0.80;;
4577;SDS011;2301;47.354;8.528;2023-05-10T02:54:45;1.40;;;0.80;;
4577;SDS011;2301;47.354;8.528;2023-05-10T02:57:17;1.90;;;1.00;;
4577;SDS011;2301;47.354;8.528;2023-05-10T02:59:52;2.43;;;1.00;;
4577;SDS011;2301;47.354;8.528;2023-05-10T03:02:20;1.57;;;0.80;;
4577;SDS011;2301;47.354;8.528;2023-05-10T03:04:47;1.57;;;0.97;;
4577;SDS011;2301;47.354;8.528;2023-05-10T03:07:15;3.10;;;0.90;;
4577;SDS011;2301;47.354;8.528;2023-05-10T03:09:44;1.80;;;1.00;;
4577;SDS011;2301;47.354;8.528;2023-05-10T03:12:11;1.80;;;0.90;;
4577;SDS011;2301;47.354;8.528;2023-05-10T03:14:45;1.60;;;0.90;;
4577;SDS011;2301;47.354;8.528;2023-05-10T03:17:22;2.43;;;0.93;;
4577;SDS011;2301;47.354;8.528;2023-05-10T03:19:55;2.50;;;1.00;;
4577;SDS011;2301;47.354;8.528;2023-05-10T03:22:28;1.47;;;0.90;;
4577;SDS011;2301;47.354;8.528;2023-05-10T03:24:58;3.00;;;1.40;;
4577;SDS011;2301;47.354;8.528;2023-05-10T03:27:30;1.83;;;1.00;;
4577;SDS011;2301;47.354;8.528;2023-05-10T03:29:58;1.30;;;0.90;;
4577;SDS011;2301;47.354;8.528;2023-05-10T03:32:25;1.43;;;0.90;;
4577;SDS011;2301;47.354;8.528;2023-05-10T03:34:53;1.30;;;0.90;;
4577;SDS011;2301;47.354;8.528;2023-05-10T03:37:20;1.60;;;0.77;;
4577;SDS011;2301;47.354;8.528;2023-05-10T03:39:48;1.97;;;0.90;;
4577;SDS011;2301;47.354;8.528;2023-05-10T03:42:15;1.73;;;0.80;;
4577;SDS011;2301;47.354;8.528;2023-05-10T03:44:42;1.30;;;0.80;;
4577;SDS011;2301;47.354;8.528;2023-05-10T03:47:09;1.30;;;0.90;;
4577;SDS011;2301;47.354;8.528;2023-05-10T03:49:36;2.07;;;0.83;;
4577;SDS011;2301;47.354;8.528;2023-05-10T03:52:03;4.67;;;0.97;;
4577;SDS011;2301;47.354;8.528;2023-05-10T03:54:30;1.50;;;0.90;;
4577;SDS011;2301;47.354;8.528;2023-05-10T03:56:58;1.63;;;0.90;;
4577;SDS011;2301;47.354;8.528;2023-05-10T03:59:25;1.40;;;0.80;;
4577;SDS011;2301;47.354;8.528;2023-05-10T04:01:52;1.47;;;0.90;;
4577;SDS011;2301;47.354;8.528;2023-05-10T04:04:19;1.87;;;0.90;;
4577;SDS011;2301;47.354;8.528;2023-05-10T04:06:47;2.63;;;1.00;;
4577;SDS011;2301;47.354;8.528;2023-05-10T04:09:13;3.63;;;1.10;;
4577;SDS011;2301;47.354;8.528;2023-05-10T04:11:41;1.40;;;0.80;;
4577;SDS011;2301;47.354;8.528;2023-05-10T04:14:09;2.00;;;1.00;;
4577;SDS011;2301;47.354;8.528;2023-05-10T04:16:36;6.23;;;1.03;;
4577;SDS011;2301;47.354;8.528;2023-05-10T04:19:03;2.30;;;1.00;;
4577;SDS011;2301;47.354;8.528;2023-05-10T04:21:30;1.53;;;0.93;;
4577;SDS011;2301;47.354;8.528;2023-05-10T04:23:57;2.13;;;1.00;;
4577;SDS011;2301;47.354;8.528;2023-05-10T04:26:24;2.03;;;0.97;;
4577;SDS011;2301;47.354;8.528;2023-05-10T04:28:51;2.20;;;1.00;;
4577;SDS011;2301;47.354;8.528;2023-05-10T04:31:19;2.50;;;0.93;;
4577;SDS011;2301;47.354;8.528;2023-05-10T04:33:46;1.67;;;0.83;;
4577;SDS011;2301;47.354;8.528;2023-05-10T04:36:13;1.50;;;0.90;;
4577;SDS011;2301;47.354;8.528;2023-05-10T04:38:40;2.00;;;1.10;;
4577;SDS011;2301;47.354;8.528;2023-05-10T04:41:08;1.70;;;1.00;;
4577;SDS011;2301;47.354;8.528;2023-05-10T04:43:36;1.83;;;0.90;;
4577;SDS011;2301;47.354;8.528;2023-05-10T04:46:07;2.07;;;0.87;;
4577;SDS011;2301;47.354;8.528;2023-05-10T04:48:39;1.80;;;1.00;;
4577;SDS011;2301;47.354;8.528;2023-05-10T04:51:06;2.33;;;1.00;;
4577;SDS011;2301;47.354;8.528;2023-05-10T04:53:33;1.43;;;0.83;;
4577;SDS011;2301;47.354;8.528;2023-05-10T04:56:00;1.93;;;0.90;;
4577;SDS011;2301;47.354;8.528;2023-05-10T04:58:27;1.40;;;0.83;;
4577;SDS011;2301;47.354;8.528;2023-05-10T05:00:54;1.40;;;0.80;;
4577;SDS011;2301;47.354;8.528;2023-05-10T05:03:21;2.50;;;1.20;;
4577;SDS011;2301;47.354;8.528;2023-05-10T05:05:49;1.40;;;0.90;;
4577;SDS011;2301;47.354;8.528;2023-05-10T05:08:16;2.00;;;0.90;;
4577;SDS011;2301;47.354;8.528;2023-05-10T05:10:43;3.83;;;1.00;;
4577;SDS011;2301;47.354;8.528;2023-05-10T05:13:10;1.80;;;1.00;;
4577;SDS011;2301;47.354;8.528;2023-05-10T05:15:38;1.30;;;0.80;;
4577;SDS011;2301;47.354;8.528;2023-05-10T05:18:05;4.40;;;1.00;;
4577;SDS011;2301;47.354;8.528;2023-05-10T05:20:32;2.33;;;1.13;;
4577;SDS011;2301;47.354;8.528;2023-05-10T05:23:01;1.60;;;1.00;;
4577;SDS011;2301;47.354;8.528;2023-05-10T05:25:28;2.07;;;1.20;;
4577;SDS011;2301;47.354;8.528;2023-05-10T05:27:55;2.07;;;1.00;;
4577;SDS011;2301;47.354;8.528;2023-05-10T05:30:21;1.67;;;0.90;;
4577;SDS011;2301;47.354;8.528;2023-05-10T05:32:48;1.40;;;0.93;;
4577;SDS011;2301;47.354;8.528;2023-05-10T05:35:15;1.50;;;0.87;;
4577;SDS011;2301;47.354;8.528;2023-05-10T05:37:42;2.73;;;1.07;;
4577;SDS011;2301;47.354;8.528;2023-05-10T05:40:13;2.00;;;1.03;;
4577;SDS011;2301;47.354;8.528;2023-05-10T05:42:40;2.10;;;1.10;;
4577;SDS011;2301;47.354;8.528;2023-05-10T05:45:07;1.63;;;0.90;;
4577;SDS011;2301;47.354;8.528;2023-05-10T05:47:37;1.40;;;0.87;;
4577;SDS011;2301;47.354;8.528;2023-05-10T05:50:05;6.10;;;1.10;;
4577;SDS011;2301;47.354;8.528;2023-05-10T05:52:32;1.87;;;1.10;;
4577;SDS011;2301;47.354;8.528;2023-05-10T05:54:59;1.60;;;0.93;;
4577;SDS011;2301;47.354;8.528;2023-05-10T05:57:27;2.17;;;0.97;;
4577;SDS011;2301;47.354;8.528;2023-05-10T05:59:54;1.60;;;1.00;;
4577;SDS011;2301;47.354;8.528;2023-05-10T06:02:21;1.70;;;1.10;;
4577;SDS011;2301;47.354;8.528;2023-05-10T06:04:48;1.93;;;1.20;;
4577;SDS011;2301;47.354;8.528;2023-05-10T06:07:15;1.30;;;0.80;;
4577;SDS011;2301;47.354;8.528;2023-05-10T06:09:42;3.27;;;1.30;;
4577;SDS011;2301;47.354;8.528;2023-05-10T06:12:08;1.63;;;1.13;;
4577;SDS011;2301;47.354;8.528;2023-05-10T06:14:38;1.60;;;1.00;;
4577;SDS011;2301;47.354;8.528;2023-05-10T06:17:04;2.27;;;1.00;;
4577;SDS011;2301;47.354;8.528;2023-05-10T06:19:31;1.90;;;1.00;;
4577;SDS011;2301;47.354;8.528;2023-05-10T06:21:58;1.60;;;1.00;;
4577;SDS011;2301;47.354;8.528;2023-05-10T06:24:25;1.97;;;1.10;;
4577;SDS011;2301;47.354;8.528;2023-05-10T06:26:52;1.60;;;1.00;;
4577;SDS011;2301;47.354;8.528;2023-05-10T06:29:19;3.03;;;0.93;;
4577;SDS011;2301;47.354;8.528;2023-05-10T06:31:47;1.57;;;1.00;;
4577;SDS011;2301;47.354;8.528;2023-05-10T06:34:14;2.37;;;0.90;;
4577;SDS011;2301;47.354;8.528;2023-05-10T06:36:41;4.43;;;1.00;;
4577;SDS011;2301;47.354;8.528;2023-05-10T06:39:08;2.80;;;1.30;;
4577;SDS011;2301;47.354;8.528;2023-05-10T06:41:36;2.90;;;0.97;;
4577;SDS011;2301;47.354;8.528;2023-05-10T06:44:03;2.03;;;1.00;;
4577;SDS011;2301;47.354;8.528;2023-05-10T06:46:30;6.07;;;1.00;;
4577;SDS011;2301;47.354;8.528;2023-05-10T06:48:58;2.03;;;1.17;;
4577;SDS011;2301;47.354;8.528;2023-05-10T06:51:25;2.27;;;1.07;;
4577;SDS011;2301;47.354;8.528;2023-05-10T06:53:52;2.87;;;1.00;;
4577;SDS011;2301;47.354;8.528;2023-05-10T06:56:19;4.53;;;1.17;;
4577;SDS011;2301;47.354;8.528;2023-05-10T06:58:46;2.00;;;0.83;;
4577;SDS011;2301;47.354;8.528;2023-05-10T07:01:13;2.00;;;1.20;;
4577;SDS011;2301;47.354;8.528;2023-05-10T07:03:40;2.23;;;1.10;;
4577;SDS011;2301;47.354;8.528;2023-05-10T07:06:08;2.20;;;1.00;;
4577;SDS011;2301;47.354;8.528;2023-05-10T07:08:35;2.33;;;1.00;;
4577;SDS011;2301;47.354;8.528;2023-05-10T07:11:02;1.83;;;1.00;;
4577;SDS011;2301;47.354;8.528;2023-05-10T07:13:30;3.17;;;1.10;;
4577;SDS011;2301;47.354;8.528;2023-05-10T07:15:57;1.90;;;1.10;;
4577;SDS011;2301;47.354;8.528;2023-05-10T07:18:24;2.17;;;1.00;;
4577;SDS011;2301;47.354;8.528;2023-05-10T07:20:51;1.60;;;1.00;;
4577;SDS011;2301;47.354;8.528;2023-05-10T07:23:20;1.60;;;0.90;;
4577;SDS011;2301;47.354;8.528;2023-05-10T07:25:47;3.10;;;1.20;;
4577;SDS011;2301;47.354;8.528;2023-05-10T07:28:15;1.80;;;1.00;;
4577;SDS011;2301;47.354;8.528;2023-05-10T07:30:42;5.50;;;1.10;;
4577;SDS011;2301;47.354;8.528;2023-05-10T07:33:10;2.63;;;1.40;;
4577;SDS011;2301;47.354;8.528;2023-05-10T07:35:40;2.07;;;0.97;;
4577;SDS011;2301;47.354;8.528;2023-05-10T07:38:08;5.13;;;1.17;;
4577;SDS011;2301;47.354;8.528;2023-05-10T07:40:38;2.67;;;1.20;;
4577;SDS011;2301;47.354;8.528;2023-05-10T07:43:07;2.33;;;0.90;;
4577;SDS011;2301;47.354;8.528;2023-05-10T07:45:34;3.27;;;1.20;;
4577;SDS011;2301;47.354;8.528;2023-05-10T07:48:01;3.90;;;1.70;;
4577;SDS011;2301;47.354;8.528;2023-05-10T07:50:28;3.90;;;1.40;;
4577;SDS011;2301;47.354;8.528;2023-05-10T07:52:55;2.70;;;1.40;;
4577;SDS011;2301;47.354;8.528;2023-05-10T07:55:23;2.77;;;1.20;;
4577;SDS011;2301;47.354;8.528;2023-05-10T07:57:58;2.37;;;1.23;;
4577;SDS011;2301;47.354;8.528;2023-05-10T08:00:27;2.70;;;1.40;;
4577;SDS011;2301;47.354;8.528;2023-05-10T08:02:54;2.87;;;1.27;;
4577;SDS011;2301;47.354;8.528;2023-05-10T08:05:21;3.00;;;1.30;;
4577;SDS011;2301;47.354;8.528;2023-05-10T08:07:48;7.07;;;1.40;;
4577;SDS011;2301;47.354;8.528;2023-05-10T08:10:18;3.50;;;1.20;;
4577;SDS011;2301;47.354;8.528;2023-05-10T08:12:45;3.80;;;1.50;;
4577;SDS011;2301;47.354;8.528;2023-05-10T08:15:13;2.90;;;1.03;;
4577;SDS011;2301;47.354;8.528;2023-05-10T08:17:40;5.60;;;1.40;;
4577;SDS011;2301;47.354;8.528;2023-05-10T08:20:08;2.97;;;1.20;;
4577;SDS011;2301;47.354;8.528;2023-05-10T08:22:37;2.70;;;1.30;;
4577;SDS011;2301;47.354;8.528;2023-05-10T08:25:05;2.07;;;1.10;;
4577;SDS011;2301;47.354;8.528;2023-05-10T08:27:32;2.50;;;1.10;;
4577;SDS011;2301;47.354;8.528;2023-05-10T08:29:59;2.93;;;1.20;;
4577;SDS011;2301;47.354;8.528;2023-05-10T08:32:27;2.83;;;1.20;;
4577;SDS011;2301;47.354;8.528;2023-05-10T08:34:54;4.67;;;1.37;;
4577;SDS011;2301;47.354;8.528;2023-05-10T08:37:22;2.97;;;1.30;;
4577;SDS011;2301;47.354;8.528;2023-05-10T08:39:50;5.47;;;1.43;;
4577;SDS011;2301;47.354;8.528;2023-05-10T08:42:19;4.60;;;1.63;;
4577;SDS011;2301;47.354;8.528;2023-05-10T08:44:48;4.00;;;1.20;;
4577;SDS011;2301;47.354;8.528;2023-05-10T08:47:15;3.00;;;1.20;;
4577;SDS011;2301;47.354;8.528;2023-05-10T08:49:45;5.10;;;1.47;;
4577;SDS011;2301;47.354;8.528;2023-05-10T08:52:16;2.53;;;1.27;;
4577;SDS011;2301;47.354;8.528;2023-05-10T08:54:43;5.07;;;1.63;;
4577;SDS011;2301;47.354;8.528;2023-05-10T08:57:10;7.40;;;1.70;;
4577;SDS011;2301;47.354;8.528;2023-05-10T08:59:37;4.47;;;1.73;;
4577;SDS011;2301;47.354;8.528;2023-05-10T09:02:05;3.80;;;1.30;;
4577;SDS011;2301;47.354;8.528;2023-05-10T09:04:32;3.33;;;1.17;;
4577;SDS011;2301;47.354;8.528;2023-05-10T09:07:00;4.00;;;1.27;;
4577;SDS011;2301;47.354;8.528;2023-05-10T09:09:27;4.30;;;1.70;;
4577;SDS011;2301;47.354;8.528;2023-05-10T09:11:54;4.53;;;1.37;;
4577;SDS011;2301;47.354;8.528;2023-05-10T09:14:21;3.30;;;1.30;;
4577;SDS011;2301;47.354;8.528;2023-05-10T09:16:50;7.63;;;1.83;;
4577;SDS011;2301;47.354;8.528;2023-05-10T09:19:18;7.70;;;1.57;;
4577;SDS011;2301;47.354;8.528;2023-05-10T09:21:45;3.60;;;1.30;;
4577;SDS011;2301;47.354;8.528;2023-05-10T09:24:14;4.40;;;1.50;;
4577;SDS011;2301;47.354;8.528;2023-05-10T09:26:45;2.60;;;1.40;;
4577;SDS011;2301;47.354;8.528;2023-05-10T09:29:13;3.40;;;1.30;;
4577;SDS011;2301;47.354;8.528;2023-05-10T09:31:44;5.03;;;1.60;;
4577;SDS011;2301;47.354;8.528;2023-05-10T09:34:15;4.60;;;1.40;;
4577;SDS011;2301;47.354;8.528;2023-05-10T09:36:50;4.50;;;1.30;;
4577;SDS011;2301;47.354;8.528;2023-05-10T09:39:19;13.13;;;1.50;;
4577;SDS011;2301;47.354;8.528;2023-05-10T09:41:46;6.07;;;1.80;;
4577;SDS011;2301;47.354;8.528;2023-05-10T09:44:16;5.23;;;1.77;;
4577;SDS011;2301;47.354;8.528;2023-05-10T09:46:48;4.10;;;1.30;;
4577;SDS011;2301;47.354;8.528;2023-05-10T09:49:16;4.10;;;1.43;;
4577;SDS011;2301;47.354;8.528;2023-05-10T09:51:43;8.50;;;1.70;;
4577;SDS011;2301;47.354;8.528;2023-05-10T09:54:10;3.80;;;1.63;;
4577;SDS011;2301;47.354;8.528;2023-05-10T09:56:39;10.33;;;1.93;;
4577;SDS011;2301;47.354;8.528;2023-05-10T09:59:07;3.03;;;1.50;;
4577;SDS011;2301;47.354;8.528;2023-05-10T10:01:35;3.20;;;1.20;;
4577;SDS011;2301;47.354;8.528;2023-05-10T10:04:03;7.00;;;1.70;;
4577;SDS011;2301;47.354;8.528;2023-05-10T10:06:35;3.47;;;1.40;;
4577;SDS011;2301;47.354;8.528;2023-05-10T10:09:03;2.47;;;1.37;;
4577;SDS011;2301;47.354;8.528;2023-05-10T10:11:30;3.73;;;1.70;;
4577;SDS011;2301;47.354;8.528;2023-05-10T10:13:59;5.70;;;1.60;;
4577;SDS011;2301;47.354;8.528;2023-05-10T10:16:26;5.20;;;1.60;;
4577;SDS011;2301;47.354;8.528;2023-05-10T10:18:54;2.77;;;1.40;;
4577;SDS011;2301;47.354;8.528;2023-05-10T10:21:21;3.17;;;1.50;;
4577;SDS011;2301;47.354;8.528;2023-05-10T10:23:49;6.30;;;2.37;;
4577;SDS011;2301;47.354;8.528;2023-05-10T10:26:16;3.77;;;1.53;;
4577;SDS011;2301;47.354;8.528;2023-05-10T10:28:46;2.37;;;1.40;;
4577;SDS011;2301;47.354;8.528;2023-05-10T10:31:20;7.80;;;1.67;;
4577;SDS011;2301;47.354;8.528;2023-05-10T10:33:59;3.47;;;1.90;;
4577;SDS011;2301;47.354;8.528;2023-05-10T10:36:28;4.63;;;1.70;;
4577;SDS011;2301;47.354;8.528;2023-05-10T10:38:58;3.30;;;1.57;;
4577;SDS011;2301;47.354;8.528;2023-05-10T10:41:32;3.10;;;1.40;;
4577;SDS011;2301;47.354;8.528;2023-05-10T10:47:04;2.97;;;1.70;;
4577;SDS011;2301;47.354;8.528;2023-05-10T10:49:37;5.17;;;1.60;;
4577;SDS011;2301;47.354;8.528;2023-05-10T10:54:59;2.53;;;1.20;;
4577;SDS011;2301;47.354;8.528;2023-05-10T10:57:28;6.20;;;1.60;;
4577;SDS011;2301;47.354;8.528;2023-05-10T11:02:49;3.10;;;1.23;;
4577;SDS011;2301;47.354;8.528;2023-05-10T11:05:23;5.30;;;1.57;;
4577;SDS011;2301;47.354;8.528;2023-05-10T11:07:52;6.73;;;1.60;;
4577;SDS011;2301;47.354;8.528;2023-05-10T11:10:20;4.07;;;1.63;;
4577;SDS011;2301;47.354;8.528;2023-05-10T11:12:53;2.00;;;1.40;;
4577;SDS011;2301;47.354;8.528;2023-05-10T11:15:29;4.63;;;1.43;;
4577;SDS011;2301;47.354;8.528;2023-05-10T11:17:58;6.73;;;1.60;;
4577;SDS011;2301;47.354;8.528;2023-05-10T11:20:27;2.90;;;1.47;;
4577;SDS011;2301;47.354;8.528;2023-05-10T11:22:59;3.03;;;1.50;;
4577;SDS011;2301;47.354;8.528;2023-05-10T11:25:40;4.07;;;1.60;;
4577;SDS011;2301;47.354;8.528;2023-05-10T11:28:09;3.60;;;1.30;;
4577;SDS011;2301;47.354;8.528;2023-05-10T11:30:37;7.23;;;1.77;;
4577;SDS011;2301;47.354;8.528;2023-05-10T11:33:06;7.30;;;2.00;;
4577;SDS011;2301;47.354;8.528;2023-05-10T11:35:37;3.70;;;1.80;;
4577;SDS011;2301;47.354;8.528;2023-05-10T11:38:05;7.10;;;1.80;;
4577;SDS011;2301;47.354;8.528;2023-05-10T11:40:33;6.03;;;1.60;;
4577;SDS011;2301;47.354;8.528;2023-05-10T11:43:00;3.13;;;1.53;;
4577;SDS011;2301;47.354;8.528;2023-05-10T11:45:27;4.40;;;2.10;;
4577;SDS011;2301;47.354;8.528;2023-05-10T11:47:56;2.90;;;1.10;;
4577;SDS011;2301;47.354;8.528;2023-05-10T11:50:25;4.13;;;1.57;;
4577;SDS011;2301;47.354;8.528;2023-05-10T11:52:52;8.00;;;1.60;;
4577;SDS011;2301;47.354;8.528;2023-05-10T11:55:20;6.07;;;1.50;;
4577;SDS011;2301;47.354;8.528;2023-05-10T11:57:47;4.30;;;1.43;;
4577;SDS011;2301;47.354;8.528;2023-05-10T12:00:19;6.43;;;2.00;;
4577;SDS011;2301;47.354;8.528;2023-05-10T12:02:46;6.47;;;1.50;;
4577;SDS011;2301;47.354;8.528;2023-05-10T12:05:14;5.87;;;1.80;;
4577;SDS011;2301;47.354;8.528;2023-05-10T12:07:42;7.70;;;1.70;;
4577;SDS011;2301;47.354;8.528;2023-05-10T12:10:10;5.20;;;1.57;;
4577;SDS011;2301;47.354;8.528;2023-05-10T12:12:39;4.80;;;1.53;;
4577;SDS011;2301;47.354;8.528;2023-05-10T12:15:10;4.67;;;1.77;;
4577;SDS011;2301;47.354;8.528;2023-05-10T12:17:38;4.90;;;1.70;;
4577;SDS011;2301;47.354;8.528;2023-05-10T12:20:13;2.37;;;1.20;;
4577;SDS011;2301;47.354;8.528;2023-05-10T12:22:41;4.83;;;1.73;;
4577;SDS011;2301;47.354;8.528;2023-05-10T12:25:11;4.47;;;2.00;;
4577;SDS011;2301;47.354;8.528;2023-05-10T12:27:38;4.70;;;1.67;;
4577;SDS011;2301;47.354;8.528;2023-05-10T12:30:06;6.83;;;1.63;;
4577;SDS011;2301;47.354;8.528;2023-05-10T12:32:37;4.63;;;1.60;;
4577;SDS011;2301;47.354;8.528;2023-05-10T12:35:04;3.60;;;2.07;;
4577;SDS011;2301;47.354;8.528;2023-05-10T12:37:32;6.23;;;1.57;;
4577;SDS011;2301;47.354;8.528;2023-05-10T12:40:07;4.63;;;1.43;;
4577;SDS011;2301;47.354;8.528;2023-05-10T12:42:37;7.40;;;1.63;;
4577;SDS011;2301;47.354;8.528;2023-05-10T12:45:05;6.33;;;1.70;;
4577;SDS011;2301;47.354;8.528;2023-05-10T12:47:33;9.83;;;2.80;;
4577;SDS011;2301;47.354;8.528;2023-05-10T12:50:01;7.17;;;1.90;;
4577;SDS011;2301;47.354;8.528;2023-05-10T12:52:28;3.70;;;1.57;;
4577;SDS011;2301;47.354;8.528;2023-05-10T12:54:57;3.97;;;1.70;;
4577;SDS011;2301;47.354;8.528;2023-05-10T12:57:26;9.17;;;1.50;;
4577;SDS011;2301;47.354;8.528;2023-05-10T12:59:53;8.40;;;1.43;;
4577;SDS011;2301;47.354;8.528;2023-05-10T13:02:20;3.83;;;1.60;;
4577;SDS011;2301;47.354;8.528;2023-05-10T13:04:48;3.70;;;1.57;;
4577;SDS011;2301;47.354;8.528;2023-05-10T13:07:15;4.87;;;1.53;;
4577;SDS011;2301;47.354;8.528;2023-05-10T13:09:42;3.10;;;1.50;;
4577;SDS011;2301;47.354;8.528;2023-05-10T13:12:09;3.40;;;1.30;;
4577;SDS011;2301;47.354;8.528;2023-05-10T13:14:37;3.80;;;1.40;;
4577;SDS011;2301;47.354;8.528;2023-05-10T13:17:05;2.70;;;1.57;;
4577;SDS011;2301;47.354;8.528;2023-05-10T13:19:32;3.97;;;1.50;;
4577;SDS011;2301;47.354;8.528;2023-05-10T13:21:59;3.73;;;1.60;;
4577;SDS011;2301;47.354;8.528;2023-05-10T13:24:26;3.77;;;1.63;;
4577;SDS011;2301;47.354;8.528;2023-05-10T13:26:52;3.37;;;1.50;;
4577;SDS011;2301;47.354;8.528;2023-05-10T13:29:19;4.00;;;1.70;;
4577;SDS011;2301;47.354;8.528;2023-05-10T13:31:48;5.07;;;1.73;;
4577;SDS011;2301;47.354;8.528;2023-05-10T13:34:15;2.53;;;1.70;;
4577;SDS011;2301;47.354;8.528;2023-05-10T13:36:45;4.93;;;1.83;;
4577;SDS011;2301;47.354;8.528;2023-05-10T13:39:12;4.10;;;1.93;;
4577;SDS011;2301;47.354;8.528;2023-05-10T13:41:39;4.53;;;1.90;;
4577;SDS011;2301;47.354;8.528;2023-05-10T13:44:06;5.20;;;1.47;;
4577;SDS011;2301;47.354;8.528;2023-05-10T13:46:33;3.80;;;1.50;;
4577;SDS011;2301;47.354;8.528;2023-05-10T13:49:02;7.33;;;1.60;;
4577;SDS011;2301;47.354;8.528;2023-05-10T13:51:29;3.10;;;1.23;;
4577;SDS011;2301;47.354;8.528;2023-05-10T13:53:56;4.93;;;1.73;;
4577;SDS011;2301;47.354;8.528;2023-05-10T13:56:23;2.83;;;1.60;;
4577;SDS011;2301;47.354;8.528;2023-05-10T13:58:50;7.80;;;1.63;;
4577;SDS011;2301;47.354;8.528;2023-05-10T14:01:17;6.13;;;1.67;;
4577;SDS011;2301;47.354;8.528;2023-05-10T14:03:44;4.80;;;1.70;;
4577;SDS011;2301;47.354;8.528;2023-05-10T14:06:14;2.90;;;1.50;;
4577;SDS011;2301;47.354;8.528;2023-05-10T14:08:45;6.10;;;1.67;;
4577;SDS011;2301;47.354;8.528;2023-05-10T14:11:14;4.47;;;1.83;;
4577;SDS011;2301;47.354;8.528;2023-05-10T14:13:41;6.23;;;1.60;;
4577;SDS011;2301;47.354;8.528;2023-05-10T14:16:08;6.60;;;1.70;;
4577;SDS011;2301;47.354;8.528;2023-05-10T14:18:35;2.43;;;1.30;;
4577;SDS011;2301;47.354;8.528;2023-05-10T14:21:02;5.60;;;1.80;;
4577;SDS011;2301;47.354;8.528;2023-05-10T14:23:31;4.00;;;1.57;;
4577;SDS011;2301;47.354;8.528;2023-05-10T14:25:58;2.63;;;1.30;;
4577;SDS011;2301;47.354;8.528;2023-05-10T14:28:25;5.10;;;1.50;;
4577;SDS011;2301;47.354;8.528;2023-05-10T14:30:51;4.67;;;1.20;;
4577;SDS011;2301;47.354;8.528;2023-05-10T14:33:18;5.00;;;1.40;;
4577;SDS011;2301;47.354;8.528;2023-05-10T14:35:45;5.33;;;1.60;;
4577;SDS011;2301;47.354;8.528;2023-05-10T14:38:12;4.90;;;1.50;;
4577;SDS011;2301;47.354;8.528;2023-05-10T14:40:41;2.00;;;1.30;;
4577;SDS011;2301;47.354;8.528;2023-05-10T14:43:08;3.23;;;1.80;;
4577;SDS011;2301;47.354;8.528;2023-05-10T14:45:35;3.50;;;1.40;;
4577;SDS011;2301;47.354;8.528;2023-05-10T14:48:03;1.90;;;1.00;;
4577;SDS011;2301;47.354;8.528;2023-05-10T14:50:33;2.10;;;1.20;;
4577;SDS011;2301;47.354;8.528;2023-05-10T14:53:03;3.60;;;1.33;;
4577;SDS011;2301;47.354;8.528;2023-05-10T14:55:33;4.00;;;1.50;;
4577;SDS011;2301;47.354;8.528;2023-05-10T14:58:06;2.97;;;1.40;;
4577;SDS011;2301;47.354;8.528;2023-05-10T15:00:33;3.30;;;1.30;;
4577;SDS011;2301;47.354;8.528;2023-05-10T15:03:00;4.10;;;1.50;;
4577;SDS011;2301;47.354;8.528;2023-05-10T15:05:28;4.10;;;1.40;;
4577;SDS011;2301;47.354;8.528;2023-05-10T15:07:55;5.60;;;1.67;;
4577;SDS011;2301;47.354;8.528;2023-05-10T15:10:22;6.10;;;1.33;;
4577;SDS011;2301;47.354;8.528;2023-05-10T15:12:49;4.40;;;1.30;;
4577;SDS011;2301;47.354;8.528;2023-05-10T15:15:17;2.43;;;1.23;;
4577;SDS011;2301;47.354;8.528;2023-05-10T15:17:44;3.53;;;1.60;;
4577;SDS011;2301;47.354;8.528;2023-05-10T15:20:11;4.50;;;1.60;;
4577;SDS011;2301;47.354;8.528;2023-05-10T15:22:38;5.50;;;2.40;;
4577;SDS011;2301;47.354;8.528;2023-05-10T15:25:06;7.20;;;2.00;;
4577;SDS011;2301;47.354;8.528;2023-05-10T15:27:34;4.23;;;1.43;;
4577;SDS011;2301;47.354;8.528;2023-05-10T15:30:01;4.63;;;1.90;;
4577;SDS011;2301;47.354;8.528;2023-05-10T15:32:30;2.13;;;1.20;;
4577;SDS011;2301;47.354;8.528;2023-05-10T15:34:57;3.90;;;1.43;;